createdAt,value
2022-09-17T00:00:52.544Z,17.00
2022-09-17T00:03:23.697Z,15.43
2022-09-17T00:06:02.994Z,15.17
2022-09-17T00:08:33.793Z,18.57
2022-09-17T00:11:12.195Z,16.90
2022-09-17T00:13:43.884Z,15.70
2022-09-17T00:16:13.420Z,14.90
2022-09-17T00:18:42.677Z,15.07
2022-09-17T00:21:18.531Z,15.47
2022-09-17T00:23:49.541Z,16.27
2022-09-17T00:26:21.182Z,16.40
2022-09-17T00:28:53.857Z,11.97
2022-09-17T00:31:24.783Z,11.77
2022-09-17T00:33:56.104Z,12.67
2022-09-17T00:36:25.997Z,12.97
2022-09-17T00:38:57.458Z,11.90
2022-09-17T00:41:31.593Z,11.70
2022-09-17T00:44:06.598Z,11.63
2022-09-17T00:46:40.423Z,12.87
2022-09-17T00:49:16.029Z,13.13
2022-09-17T00:52:00.638Z,12.03
2022-09-17T00:54:35.122Z,11.57
2022-09-17T00:57:13.807Z,11.37
2022-09-17T00:59:50.830Z,10.67
2022-09-17T01:02:25.015Z,11.00
2022-09-17T01:04:55.514Z,11.37
2022-09-17T01:07:53.745Z,12.23
2022-09-17T01:10:42.594Z,11.23
2022-09-17T01:13:24.871Z,10.83
2022-09-17T01:16:05.158Z,11.10
2022-09-17T01:18:51.533Z,10.63
2022-09-17T01:21:41.124Z,11.30
2022-09-17T01:24:59.549Z,11.30
2022-09-17T01:28:06.820Z,10.40
2022-09-17T01:31:12.362Z,10.93
2022-09-17T01:33:51.329Z,10.87
2022-09-17T01:36:35.271Z,10.63
2022-09-17T01:39:24.271Z,10.83
2022-09-17T01:42:02.636Z,10.63
2022-09-17T01:44:42.456Z,11.47
2022-09-17T01:47:21.210Z,12.23
2022-09-17T01:49:53.923Z,12.17
2022-09-17T01:52:26.031Z,12.10
2022-09-17T01:55:01.143Z,11.80
2022-09-17T01:57:36.421Z,11.13
2022-09-17T02:00:18.970Z,11.00
2022-09-17T02:03:16.597Z,11.57
2022-09-17T02:05:49.773Z,11.53
2022-09-17T02:08:43.690Z,12.23
2022-09-17T02:11:15.372Z,12.73
2022-09-17T02:13:49.786Z,13.50
2022-09-17T02:16:29.402Z,12.83
2022-09-17T02:19:13.672Z,12.47
2022-09-17T02:22:01.001Z,14.00
2022-09-17T02:24:36.987Z,13.53
2022-09-17T02:27:14.407Z,12.00
2022-09-17T02:30:04.833Z,12.30
2022-09-17T02:32:41.418Z,14.87
2022-09-17T02:38:52.540Z,12.60
2022-09-17T02:45:27.660Z,12.93
2022-09-17T02:48:38.139Z,12.67
2022-09-17T02:55:25.739Z,11.80
2022-09-17T02:58:07.977Z,11.43
2022-09-17T03:00:41.762Z,12.77
2022-09-17T03:03:35.287Z,13.73
2022-09-17T03:06:24.837Z,13.50
2022-09-17T03:09:05.605Z,12.57
2022-09-17T03:11:36.674Z,13.90
2022-09-17T03:14:29.070Z,13.27
2022-09-17T03:17:09.487Z,13.33
2022-09-17T03:22:58.037Z,13.57
2022-09-17T03:25:31.539Z,13.23
2022-09-17T03:28:00.478Z,14.33
2022-09-17T03:30:55.956Z,15.83
2022-09-17T03:33:46.536Z,14.57
2022-09-17T03:42:00.572Z,14.73
2022-09-17T03:44:45.613Z,14.77
2022-09-17T03:47:18.274Z,14.80
2022-09-17T03:52:52.036Z,13.93
2022-09-17T03:55:26.661Z,15.57
2022-09-17T03:57:56.291Z,15.43
2022-09-17T04:00:25.495Z,15.17
2022-09-17T04:02:54.294Z,15.10
2022-09-17T04:05:23.036Z,15.87
2022-09-17T04:07:51.736Z,14.57
2022-09-17T04:10:21.750Z,12.55
2022-09-17T04:12:50.294Z,20.47
2022-09-17T04:15:19.108Z,20.13
2022-09-17T04:17:47.823Z,16.23
2022-09-17T04:20:16.495Z,18.00
2022-09-17T04:22:45.091Z,16.90
2022-09-17T04:25:13.742Z,16.53
2022-09-17T04:27:45.016Z,14.93
2022-09-17T04:30:15.547Z,17.30
2022-09-17T04:32:46.672Z,14.73
2022-09-17T04:35:15.979Z,19.77
2022-09-17T04:37:44.668Z,16.40
2022-09-17T04:40:13.497Z,17.43
2022-09-17T04:42:43.836Z,16.30
2022-09-17T04:45:12.663Z,15.60
2022-09-17T04:47:41.427Z,16.90
2022-09-17T04:50:11.345Z,16.27
2022-09-17T04:52:43.865Z,14.73
2022-09-17T04:55:13.145Z,15.77
2022-09-17T04:57:47.838Z,15.33
2022-09-17T05:00:17.885Z,15.33
2022-09-17T05:02:48.405Z,15.97
2022-09-17T05:05:17.955Z,17.30
2022-09-17T05:07:47.154Z,18.60
2022-09-17T05:10:18.034Z,17.13
2022-09-17T05:12:51.516Z,18.07
2022-09-17T05:15:20.505Z,19.57
2022-09-17T05:17:49.441Z,19.30
2022-09-17T05:20:18.712Z,12.95
2022-09-17T05:22:48.847Z,14.67
2022-09-17T05:25:19.830Z,19.30
2022-09-17T05:27:48.494Z,19.27
2022-09-17T05:30:19.068Z,29.92
2022-09-17T05:32:47.689Z,19.23
2022-09-17T05:35:16.768Z,15.03
2022-09-17T05:37:45.385Z,15.30
2022-09-17T05:40:14.003Z,17.80
2022-09-17T05:42:42.638Z,17.77
2022-09-17T05:45:12.095Z,15.57
2022-09-17T05:47:42.120Z,18.07
2022-09-17T05:50:11.433Z,21.43
2022-09-17T05:52:46.652Z,18.73
2022-09-17T05:55:15.556Z,18.03
2022-09-17T05:57:44.538Z,13.27
2022-09-17T06:00:14.574Z,15.10
2022-09-17T06:02:46.424Z,13.93
2022-09-17T06:05:15.279Z,14.03
2022-09-17T06:07:57.992Z,15.87
2022-09-17T06:10:42.436Z,16.43
2022-09-17T06:13:11.138Z,15.90
2022-09-17T06:15:40.008Z,14.27
2022-09-17T06:18:10.221Z,15.17
2022-09-17T06:20:39.556Z,14.37
2022-09-17T06:23:11.650Z,15.27
2022-09-17T06:25:44.009Z,14.67
2022-09-17T06:28:12.819Z,16.57
2022-09-17T06:30:41.590Z,16.17
2022-09-17T06:33:11.685Z,15.87
2022-09-17T06:35:40.531Z,16.43
2022-09-17T06:38:09.207Z,18.33
2022-09-17T06:40:38.080Z,21.10
2022-09-17T06:43:06.830Z,20.03
2022-09-17T06:45:35.471Z,16.03
2022-09-17T06:48:06.618Z,17.97
2022-09-17T06:50:41.978Z,15.87
2022-09-17T06:53:11.828Z,15.77
2022-09-17T06:55:40.585Z,15.80
2022-09-17T06:58:09.230Z,17.03
2022-09-17T07:00:37.972Z,19.83
2022-09-17T07:03:07.060Z,16.33
2022-09-17T07:05:37.868Z,17.93
2022-09-17T07:08:06.610Z,18.40
2022-09-17T07:10:35.242Z,17.93
2022-09-17T07:13:04.294Z,17.53
2022-09-17T07:15:32.930Z,18.07
2022-09-17T07:18:02.744Z,17.73
2022-09-17T07:20:31.622Z,26.33
2022-09-17T07:23:01.640Z,22.67
2022-09-17T07:25:30.468Z,55.40
2022-09-17T07:27:59.900Z,22.93
2022-09-17T07:30:28.514Z,27.60
2022-09-17T07:32:57.260Z,15.60
2022-09-17T07:35:25.865Z,128.03
2022-09-17T07:37:55.445Z,150.83
2022-09-17T07:40:28.135Z,158.20
2022-09-17T07:42:59.519Z,146.23
2022-09-17T07:45:28.226Z,188.30
2022-09-17T07:47:56.852Z,169.33
2022-09-17T07:50:25.550Z,183.70
2022-09-17T07:52:54.357Z,164.07
2022-09-17T07:55:24.431Z,152.43
2022-09-17T07:57:53.977Z,76.50
2022-09-17T08:00:22.861Z,91.37
2022-09-17T08:02:56.057Z,121.03
2022-09-17T08:05:25.900Z,143.87
2022-09-17T08:07:59.374Z,142.27
2022-09-17T08:10:29.719Z,127.50
2022-09-17T08:12:59.955Z,111.60
2022-09-17T08:15:29.471Z,133.10
2022-09-17T08:17:58.108Z,63.78
2022-09-17T08:20:27.397Z,67.70
2022-09-17T08:23:03.072Z,84.73
2022-09-17T08:25:33.115Z,81.57
2022-09-17T08:28:01.794Z,79.63
2022-09-17T08:30:32.042Z,22.87
2022-09-17T08:33:01.997Z,19.53
2022-09-17T08:35:31.994Z,20.63
2022-09-17T08:38:00.729Z,21.00
2022-09-17T08:40:30.560Z,24.00
2022-09-17T08:43:04.125Z,23.87
2022-09-17T08:45:34.402Z,29.80
2022-09-17T08:48:06.140Z,84.67
2022-09-17T08:50:39.369Z,67.50
2022-09-17T08:53:35.834Z,73.33
2022-09-17T08:56:12.007Z,190.65
2022-09-17T08:58:57.442Z,84.30
2022-09-17T09:01:39.988Z,72.90
2022-09-17T09:04:36.650Z,84.88
2022-09-17T09:07:10.531Z,73.23
2022-09-17T09:09:43.248Z,84.67
2022-09-17T09:12:19.611Z,77.83
2022-09-17T09:14:55.796Z,73.50
2022-09-17T09:17:27.361Z,63.90
2022-09-17T09:19:56.644Z,87.43
2022-09-17T09:22:47.212Z,200.95
2022-09-17T09:25:27.591Z,188.57
2022-09-17T09:28:12.355Z,50.07
2022-09-17T09:30:51.851Z,22.83
2022-09-17T09:33:28.351Z,22.00
2022-09-17T09:35:57.339Z,18.47
2022-09-17T09:38:37.504Z,11.25
2022-09-17T09:41:12.388Z,8.50
2022-09-17T09:44:03.303Z,7.75
2022-09-17T09:47:02.166Z,7.82
2022-09-17T09:49:42.032Z,6.65
2022-09-17T09:52:21.791Z,8.07
2022-09-17T09:55:01.232Z,7.30
2022-09-17T09:57:40.907Z,7.35
2022-09-17T10:00:37.006Z,7.88
2022-09-17T10:03:15.899Z,5.68
2022-09-17T10:05:56.096Z,6.53
2022-09-17T10:09:25.125Z,9.95
2022-09-17T10:12:06.184Z,6.88
2022-09-17T10:14:36.557Z,10.15
2022-09-17T10:17:22.491Z,8.25
2022-09-17T10:20:23.053Z,9.13
2022-09-17T10:22:52.683Z,11.17
2022-09-17T10:25:32.302Z,7.57
2022-09-17T10:28:04.588Z,7.33
2022-09-17T10:30:34.910Z,9.47
2022-09-17T10:33:23.556Z,5.97
2022-09-17T10:36:04.576Z,8.07
2022-09-17T10:38:38.927Z,9.53
2022-09-17T10:41:22.924Z,10.23
2022-09-17T10:43:52.126Z,13.05
2022-09-17T10:46:28.027Z,12.73
2022-09-17T10:49:10.171Z,12.55
2022-09-17T10:51:40.921Z,12.27
2022-09-17T10:54:36.187Z,12.48
2022-09-17T10:57:07.213Z,23.85
2022-09-17T11:00:06.881Z,9.30
2022-09-17T11:03:18.812Z,8.90
2022-09-17T11:06:13.591Z,8.20
2022-09-17T11:08:53.991Z,9.70
2022-09-17T11:11:36.691Z,11.95
2022-09-17T11:14:18.149Z,7.13
2022-09-17T11:16:56.051Z,10.90
2022-09-17T11:19:37.999Z,12.40
2022-09-17T11:22:18.393Z,13.63
2022-09-17T11:25:15.435Z,15.32
2022-09-17T11:28:11.117Z,13.48
2022-09-17T11:30:51.027Z,13.30
2022-09-17T11:33:42.369Z,16.50
2022-09-17T11:36:15.460Z,17.58
2022-09-17T11:38:48.872Z,18.40
2022-09-17T11:41:23.494Z,17.73
2022-09-17T11:44:02.189Z,13.80
2022-09-17T11:46:36.951Z,14.40
2022-09-17T11:49:10.593Z,15.90
2022-09-17T11:51:43.083Z,13.15
2022-09-17T11:54:23.622Z,9.30
2022-09-17T11:57:00.841Z,17.13
2022-09-17T11:59:35.432Z,10.73
2022-09-17T12:02:08.744Z,8.90
2022-09-17T12:04:45.847Z,11.40
2022-09-17T12:07:31.651Z,10.73
2022-09-17T12:10:08.106Z,9.65
2022-09-17T12:12:49.993Z,8.80
2022-09-17T12:15:23.975Z,8.98
2022-09-17T12:18:27.351Z,11.60
2022-09-17T12:20:51.059Z,11.90
2022-09-17T12:23:30.449Z,10.75
2022-09-17T12:26:08.025Z,9.90
2022-09-17T12:28:45.836Z,14.10
2022-09-17T12:31:21.137Z,17.58
2022-09-17T12:33:55.334Z,14.65
2022-09-17T12:36:45.933Z,16.08
2022-09-17T12:39:36.397Z,13.35
2022-09-17T12:42:15.336Z,17.92
2022-09-17T12:44:59.058Z,13.00
2022-09-17T12:47:52.088Z,13.63
2022-09-17T12:50:28.316Z,12.18
2022-09-17T12:53:09.662Z,13.25
2022-09-17T12:55:51.691Z,15.35
2022-09-17T12:58:35.214Z,13.90
2022-09-17T13:01:14.384Z,14.18
2022-09-17T13:03:46.805Z,7.10
2022-09-17T13:06:46.963Z,10.38
2022-09-17T13:09:49.934Z,10.30
2022-09-17T13:12:26.263Z,10.63
2022-09-17T13:15:27.230Z,10.75
2022-09-17T13:18:23.636Z,16.42
2022-09-17T13:21:03.605Z,24.40
2022-09-17T13:23:40.960Z,14.23
2022-09-17T13:26:11.226Z,20.27
2022-09-17T13:28:46.957Z,12.65
2022-09-17T13:31:22.465Z,44.47
2022-09-17T13:34:00.700Z,12.65
2022-09-17T13:36:42.048Z,11.30
2022-09-17T13:39:12.524Z,12.15
2022-09-17T13:41:43.487Z,12.15
2022-09-17T13:44:13.326Z,10.82
2022-09-17T13:46:42.100Z,11.02
2022-09-17T13:49:17.790Z,11.77
2022-09-17T13:51:49.954Z,11.02
2022-09-17T13:54:22.078Z,11.65
2022-09-17T13:57:10.585Z,11.10
2022-09-17T13:59:39.571Z,10.25
2022-09-17T14:02:38.291Z,10.02
2022-09-17T14:05:38.686Z,10.52
2022-09-17T14:08:31.434Z,8.38
2022-09-17T14:11:06.272Z,10.25
2022-09-17T14:13:46.230Z,9.15
2022-09-17T14:16:40.832Z,8.65
2022-09-17T14:19:33.021Z,12.38
2022-09-17T14:22:13.625Z,10.10
2022-09-17T14:24:50.454Z,10.02
2022-09-17T14:28:07.988Z,10.70
2022-09-17T14:30:36.904Z,10.53
2022-09-17T14:33:10.140Z,17.07
2022-09-17T14:35:41.551Z,18.83
2022-09-17T14:38:18.160Z,18.67
2022-09-17T14:40:48.482Z,18.15
2022-09-17T14:43:22.663Z,15.48
2022-09-17T14:45:54.416Z,19.70
2022-09-17T14:48:31.951Z,18.08
2022-09-17T14:51:27.307Z,19.07
2022-09-17T14:54:20.380Z,17.60
2022-09-17T14:56:58.346Z,18.67
2022-09-17T14:59:50.690Z,18.55
2022-09-17T15:02:36.317Z,18.17
2022-09-17T15:05:18.794Z,16.37
2022-09-17T15:07:48.865Z,18.00
2022-09-17T15:10:20.937Z,16.73
2022-09-17T15:12:51.904Z,17.23
2022-09-17T15:15:24.015Z,17.65
2022-09-17T15:17:54.250Z,19.07
2022-09-17T15:20:24.922Z,15.60
2022-09-17T15:23:00.002Z,17.52
2022-09-17T15:25:32.639Z,17.02
2022-09-17T15:28:06.563Z,16.88
2022-09-17T15:30:35.928Z,15.32
2022-09-17T15:33:04.578Z,30.27
2022-09-17T15:35:34.103Z,28.52
2022-09-17T15:38:23.720Z,18.58
2022-09-17T15:40:54.322Z,17.25
2022-09-17T15:43:28.750Z,20.35
2022-09-17T15:45:58.423Z,21.00
2022-09-17T15:48:38.682Z,16.73
2022-09-17T15:51:23.486Z,16.90
2022-09-17T15:53:56.887Z,19.63
2022-09-17T15:56:29.494Z,22.63
2022-09-17T15:59:02.286Z,22.27
2022-09-17T16:01:55.943Z,32.33
2022-09-17T16:04:32.280Z,16.63
2022-09-17T16:07:20.257Z,17.33
2022-09-17T16:09:50.873Z,18.63
2022-09-17T16:12:23.047Z,40.50
2022-09-17T16:14:54.066Z,360.00
2022-09-17T16:17:35.810Z,271.80
2022-09-17T16:20:11.152Z,273.93
2022-09-17T16:22:39.756Z,238.83
2022-09-17T16:25:09.288Z,195.40
2022-09-17T16:27:47.766Z,81.63
2022-09-17T16:30:18.935Z,158.37
2022-09-17T16:32:47.887Z,67.47
2022-09-17T16:35:18.010Z,125.43
2022-09-17T16:37:49.295Z,29.07
2022-09-17T16:40:18.634Z,22.47
2022-09-17T16:42:49.147Z,22.80
2022-09-17T16:45:18.198Z,33.60
2022-09-17T16:47:46.964Z,31.43
2022-09-17T16:50:17.526Z,23.27
2022-09-17T16:52:46.494Z,22.77
2022-09-17T16:55:16.714Z,24.37
2022-09-17T16:57:45.538Z,21.67
2022-09-17T17:00:19.277Z,21.33
2022-09-17T17:02:54.193Z,22.20
2022-09-17T17:05:23.508Z,33.40
2022-09-17T17:07:52.201Z,20.47
2022-09-17T17:10:21.551Z,19.70
2022-09-17T17:12:50.302Z,19.43
2022-09-17T17:15:21.808Z,20.27
2022-09-17T17:17:50.813Z,21.63
2022-09-17T17:20:19.921Z,23.47
2022-09-17T17:22:48.553Z,23.30
2022-09-17T17:25:17.290Z,23.20
2022-09-17T17:27:46.013Z,23.50
2022-09-17T17:30:17.816Z,25.90
2022-09-17T17:32:52.080Z,23.13
2022-09-17T17:35:20.853Z,23.47
2022-09-17T17:37:49.611Z,21.00
2022-09-17T17:40:18.406Z,27.10
2022-09-17T17:42:47.658Z,31.27
2022-09-17T17:45:17.035Z,28.83
2022-09-17T17:47:45.601Z,32.67
2022-09-17T17:50:19.071Z,28.53
2022-09-17T17:52:48.818Z,30.60
2022-09-17T17:55:18.136Z,33.17
2022-09-17T17:57:46.692Z,32.87
2022-09-17T18:00:17.197Z,32.95
2022-09-17T18:02:46.545Z,51.27
2022-09-17T18:05:16.731Z,52.13
2022-09-17T18:07:45.477Z,56.20
2022-09-17T18:10:25.620Z,49.23
2022-09-17T18:12:55.655Z,39.77
2022-09-17T18:15:26.465Z,39.43
2022-09-17T18:17:57.990Z,32.83
2022-09-17T18:20:28.043Z,28.07
2022-09-17T18:22:56.844Z,28.10
2022-09-17T18:25:25.503Z,23.33
2022-09-17T18:27:54.454Z,22.87
2022-09-17T18:30:23.033Z,23.73
2022-09-17T18:32:53.239Z,23.03
2022-09-17T18:35:23.515Z,21.90
2022-09-17T18:38:12.733Z,22.50
2022-09-17T18:40:41.463Z,20.53
2022-09-17T18:43:10.328Z,22.17
2022-09-17T18:45:39.082Z,22.13
2022-09-17T18:48:08.630Z,21.10
2022-09-17T18:50:37.512Z,20.50
2022-09-17T18:53:07.614Z,22.37
2022-09-17T18:55:36.235Z,20.13
2022-09-17T18:58:04.883Z,21.60
2022-09-17T19:00:33.527Z,20.80
2022-09-17T19:03:02.161Z,24.57
2022-09-17T19:05:31.415Z,24.57
2022-09-17T19:08:00.224Z,24.17
2022-09-17T19:10:32.345Z,24.57
2022-09-17T19:13:01.722Z,27.23
2022-09-17T19:15:30.365Z,25.30
2022-09-17T19:17:59.071Z,27.17
2022-09-17T19:20:29.389Z,27.40
2022-09-17T19:22:58.037Z,28.20
2022-09-17T19:25:28.314Z,23.08
2022-09-17T19:27:58.954Z,29.10
2022-09-17T19:30:30.126Z,26.42
2022-09-17T19:32:59.122Z,33.37
2022-09-17T19:35:29.008Z,31.17
2022-09-17T19:37:59.868Z,28.80
2022-09-17T19:40:28.538Z,30.57
2022-09-17T19:42:59.282Z,27.53
2022-09-17T19:45:29.581Z,28.17
2022-09-17T19:48:02.106Z,29.10
2022-09-17T19:50:31.907Z,27.13
2022-09-17T19:53:00.545Z,30.73
2022-09-17T19:55:29.161Z,28.43
2022-09-17T19:58:03.950Z,31.77
2022-09-17T20:00:32.626Z,29.00
2022-09-17T20:03:03.609Z,28.63
2022-09-17T20:05:32.856Z,28.67
2022-09-17T20:08:01.606Z,30.03
2022-09-17T20:10:33.677Z,31.97
2022-09-17T20:13:03.862Z,30.77
2022-09-17T20:15:35.766Z,30.30
2022-09-17T20:18:05.467Z,27.80
2022-09-17T20:20:34.082Z,28.10
2022-09-17T20:23:02.796Z,26.47
2022-09-17T20:25:31.383Z,28.73
2022-09-17T20:28:16.099Z,28.87
2022-09-17T20:30:44.783Z,28.87
2022-09-17T20:33:13.694Z,28.17
2022-09-17T20:35:42.393Z,28.23
2022-09-17T20:41:03.480Z,28.80
2022-09-17T20:43:36.898Z,29.53
2022-09-17T20:46:06.389Z,28.47
2022-09-17T20:48:36.165Z,26.30
2022-09-17T20:51:07.896Z,26.03
2022-09-17T20:53:37.944Z,26.93
2022-09-17T20:56:08.658Z,25.43
2022-09-17T20:58:45.878Z,28.03
2022-09-17T21:01:17.961Z,29.70
2022-09-17T21:03:47.351Z,26.27
2022-09-17T21:06:19.983Z,24.80
2022-09-17T21:08:49.716Z,25.17
2022-09-17T21:11:19.278Z,24.60
2022-09-17T21:13:49.640Z,24.63
2022-09-17T21:16:18.487Z,23.07
2022-09-17T21:18:47.368Z,22.93
2022-09-17T21:21:17.205Z,23.30
2022-09-17T21:23:46.281Z,23.63
2022-09-17T21:26:18.165Z,26.83
2022-09-17T21:28:49.857Z,25.27
2022-09-17T21:31:20.221Z,26.97
2022-09-17T21:33:51.079Z,26.07
2022-09-17T21:36:21.294Z,25.13
2022-09-17T21:38:53.121Z,24.83
2022-09-17T21:41:23.193Z,25.17
2022-09-17T21:43:53.795Z,23.70
2022-09-17T21:46:23.921Z,21.80
2022-09-17T21:48:54.191Z,20.10
2022-09-17T21:51:24.335Z,22.60
2022-09-17T21:53:54.239Z,20.20
2022-09-17T21:56:23.459Z,20.27
2022-09-17T21:58:56.125Z,18.43
2022-09-17T22:01:26.826Z,14.40
2022-09-17T22:03:57.717Z,17.70
2022-09-17T22:06:28.582Z,17.77
2022-09-17T22:08:58.103Z,17.63
2022-09-17T22:11:29.655Z,17.67
2022-09-17T22:14:05.259Z,17.23
2022-09-17T22:16:36.303Z,16.63
2022-09-17T22:19:05.883Z,14.67
2022-09-17T22:21:36.895Z,14.93
2022-09-17T22:24:07.170Z,13.73
2022-09-17T22:26:38.342Z,14.77
2022-09-17T22:29:10.710Z,13.97
2022-09-17T22:31:39.766Z,15.50
2022-09-17T22:34:10.042Z,14.53
2022-09-17T22:36:39.555Z,16.60
2022-09-17T22:39:08.837Z,15.60
2022-09-17T22:41:43.229Z,15.27
2022-09-17T22:44:15.289Z,14.87
2022-09-17T22:46:46.512Z,16.33
2022-09-17T22:49:16.092Z,17.40
2022-09-17T22:51:46.960Z,16.10
2022-09-17T22:54:17.435Z,15.30
2022-09-17T22:56:46.541Z,15.30
2022-09-17T22:59:18.362Z,14.93
2022-09-17T23:01:47.219Z,15.50
2022-09-17T23:04:15.844Z,14.83
2022-09-17T23:06:44.542Z,16.20
2022-09-17T23:09:14.345Z,14.17
2022-09-17T23:11:43.194Z,14.40
2022-09-17T23:14:14.185Z,15.37
2022-09-17T23:16:46.208Z,14.93
2022-09-17T23:19:16.081Z,15.20
2022-09-17T23:21:45.057Z,16.20
2022-09-17T23:24:18.521Z,16.67
2022-09-17T23:26:47.134Z,16.97
2022-09-17T23:29:16.308Z,16.80
2022-09-17T23:31:46.362Z,17.67
2022-09-17T23:34:15.098Z,17.87
2022-09-17T23:36:43.825Z,14.87
2022-09-17T23:39:13.014Z,15.70
2022-09-17T23:41:45.745Z,15.77
2022-09-17T23:44:16.113Z,14.87
2022-09-17T23:46:47.462Z,14.77
2022-09-17T23:49:16.878Z,14.83
2022-09-17T23:51:46.203Z,14.63
2022-09-17T23:54:14.928Z,14.40
2022-09-17T23:56:43.507Z,14.53
2022-09-17T23:59:12.525Z,16.60
